sensor_id;sensor_type;location;lat;lon;timestamp;pressure;altitude;pressure_sealevel;temperature;humidity
11648;BME280;5880;52.342;9.662;2024-02-28T00:00:28;101311.88;;;9.49;49.74
11648;BME280;5880;52.342;9.662;2024-02-28T00:02:54;101314.59;;;9.42;49.67
11648;BME280;5880;52.342;9.662;2024-02-28T00:05:19;101320.66;;;9.38;49.79
11648;BME280;5880;52.342;9.662;2024-02-28T00:07:45;101326.94;;;9.32;49.68
11648;BME280;5880;52.342;9.662;2024-02-28T00:10:13;101328.63;;;9.26;49.52
11648;BME280;5880;52.342;9.662;2024-02-28T00:12:39;101330.28;;;9.20;49.74
11648;BME280;5880;52.342;9.662;2024-02-28T00:15:06;101335.31;;;9.17;49.80
11648;BME280;5880;52.342;9.662;2024-02-28T00:17:39;101324.19;;;9.12;49.77
11648;BME280;5880;52.342;9.662;2024-02-28T00:20:07;101329.19;;;9.08;49.82
11648;BME280;5880;52.342;9.662;2024-02-28T00:22:35;101329.41;;;9.06;49.72
11648;BME280;5880;52.342;9.662;2024-02-28T00:25:01;101333.16;;;9.05;49.84
11648;BME280;5880;52.342;9.662;2024-02-28T00:27:27;101316.16;;;9.03;50.03
11648;BME280;5880;52.342;9.662;2024-02-28T00:29:53;101319.13;;;9.02;49.78
11648;BME280;5880;52.342;9.662;2024-02-28T00:32:18;101317.84;;;8.98;49.99
11648;BME280;5880;52.342;9.662;2024-02-28T00:34:44;101307.09;;;8.90;50.02
11648;BME280;5880;52.342;9.662;2024-02-28T00:37:09;101312.16;;;8.93;49.97
11648;BME280;5880;52.342;9.662;2024-02-28T00:39:35;101315.28;;;8.90;49.95
11648;BME280;5880;52.342;9.662;2024-02-28T00:42:01;101314.88;;;8.86;50.03
11648;BME280;5880;52.342;9.662;2024-02-28T00:44:26;101324.28;;;8.83;49.81
11648;BME280;5880;52.342;9.662;2024-02-28T00:46:52;101316.09;;;8.77;50.12
11648;BME280;5880;52.342;9.662;2024-02-28T00:49:18;101330.34;;;8.79;49.89
11648;BME280;5880;52.342;9.662;2024-02-28T00:51:43;101321.72;;;8.75;49.86
11648;BME280;5880;52.342;9.662;2024-02-28T00:54:09;101319.41;;;8.72;49.86
11648;BME280;5880;52.342;9.662;2024-02-28T00:56:35;101333.47;;;8.69;50.05
11648;BME280;5880;52.342;9.662;2024-02-28T00:59:00;101324.00;;;8.65;50.02
11648;BME280;5880;52.342;9.662;2024-02-28T01:01:26;101318.72;;;8.57;49.74
11648;BME280;5880;52.342;9.662;2024-02-28T01:03:51;101323.97;;;8.58;49.88
11648;BME280;5880;52.342;9.662;2024-02-28T01:06:17;101340.09;;;8.53;49.58
11648;BME280;5880;52.342;9.662;2024-02-28T01:08:43;101332.50;;;8.49;49.73
11648;BME280;5880;52.342;9.662;2024-02-28T01:11:08;101335.84;;;8.44;49.87
11648;BME280;5880;52.342;9.662;2024-02-28T01:13:35;101329.94;;;8.40;49.63
11648;BME280;5880;52.342;9.662;2024-02-28T01:16:00;101330.13;;;8.39;49.95
11648;BME280;5880;52.342;9.662;2024-02-28T01:18:26;101327.81;;;8.36;49.84
11648;BME280;5880;52.342;9.662;2024-02-28T01:20:56;101333.00;;;8.31;49.94
11648;BME280;5880;52.342;9.662;2024-02-28T01:23:21;101335.72;;;8.31;49.78
11648;BME280;5880;52.342;9.662;2024-02-28T01:25:47;101326.28;;;8.27;49.97
11648;BME280;5880;52.342;9.662;2024-02-28T01:28:13;101321.03;;;8.25;49.57
11648;BME280;5880;52.342;9.662;2024-02-28T01:30:38;101314.06;;;8.16;49.80
11648;BME280;5880;52.342;9.662;2024-02-28T01:33:04;101323.72;;;8.18;49.97
11648;BME280;5880;52.342;9.662;2024-02-28T01:35:30;101327.69;;;8.16;49.77
11648;BME280;5880;52.342;9.662;2024-02-28T01:37:56;101319.28;;;8.11;49.83
11648;BME280;5880;52.342;9.662;2024-02-28T01:40:21;101319.47;;;8.09;49.54
11648;BME280;5880;52.342;9.662;2024-02-28T01:42:47;101315.44;;;8.05;50.01
11648;BME280;5880;52.342;9.662;2024-02-28T01:45:14;101322.34;;;8.01;49.72
11648;BME280;5880;52.342;9.662;2024-02-28T01:47:43;101318.75;;;7.94;49.50
11648;BME280;5880;52.342;9.662;2024-02-28T01:50:10;101318.09;;;7.92;49.81
11648;BME280;5880;52.342;9.662;2024-02-28T01:52:39;101312.78;;;7.83;49.94
11648;BME280;5880;52.342;9.662;2024-02-28T01:55:06;101315.25;;;7.78;49.79
11648;BME280;5880;52.342;9.662;2024-02-28T01:57:33;101319.66;;;7.79;49.28
11648;BME280;5880;52.342;9.662;2024-02-28T01:59:59;101315.66;;;7.75;49.82
11648;BME280;5880;52.342;9.662;2024-02-28T02:02:25;101307.03;;;7.72;49.89
11648;BME280;5880;52.342;9.662;2024-02-28T02:04:51;101312.22;;;7.67;49.94
11648;BME280;5880;52.342;9.662;2024-02-28T02:07:19;101314.31;;;7.65;49.48
11648;BME280;5880;52.342;9.662;2024-02-28T02:09:45;101300.44;;;7.59;49.76
11648;BME280;5880;52.342;9.662;2024-02-28T02:12:11;101300.63;;;7.58;49.93
11648;BME280;5880;52.342;9.662;2024-02-28T02:14:38;101296.84;;;7.52;49.52
11648;BME280;5880;52.342;9.662;2024-02-28T02:17:03;101310.63;;;7.51;49.60
11648;BME280;5880;52.342;9.662;2024-02-28T02:19:29;101315.63;;;7.47;49.62
11648;BME280;5880;52.342;9.662;2024-02-28T02:21:58;101302.13;;;7.39;49.60
11648;BME280;5880;52.342;9.662;2024-02-28T02:24:24;101306.94;;;7.37;49.58
11648;BME280;5880;52.342;9.662;2024-02-28T02:26:57;101305.00;;;7.31;49.45
11648;BME280;5880;52.342;9.662;2024-02-28T02:29:23;101297.44;;;7.26;49.44
11648;BME280;5880;52.342;9.662;2024-02-28T02:31:49;101300.34;;;7.25;49.65
11648;BME280;5880;52.342;9.662;2024-02-28T02:34:14;101304.47;;;7.21;49.27
11648;BME280;5880;52.342;9.662;2024-02-28T02:36:40;101286.22;;;7.14;49.68
11648;BME280;5880;52.342;9.662;2024-02-28T02:39:06;101282.63;;;7.14;49.57
11648;BME280;5880;52.342;9.662;2024-02-28T02:41:33;101292.03;;;7.11;49.59
11648;BME280;5880;52.342;9.662;2024-02-28T02:43:59;101297.69;;;7.10;50.01
11648;BME280;5880;52.342;9.662;2024-02-28T02:46:25;101307.06;;;7.07;49.51
11648;BME280;5880;52.342;9.662;2024-02-28T02:48:51;101299.50;;;7.03;49.96
11648;BME280;5880;52.342;9.662;2024-02-28T02:51:19;101293.84;;;7.04;49.84
11648;BME280;5880;52.342;9.662;2024-02-28T02:53:45;101283.94;;;6.96;49.82
11648;BME280;5880;52.342;9.662;2024-02-28T02:56:10;101292.94;;;6.97;49.61
11648;BME280;5880;52.342;9.662;2024-02-28T02:58:36;101294.16;;;6.94;50.18
11648;BME280;5880;52.342;9.662;2024-02-28T03:01:02;101295.00;;;6.95;49.58
11648;BME280;5880;52.342;9.662;2024-02-28T03:03:28;101298.50;;;6.89;49.77
11648;BME280;5880;52.342;9.662;2024-02-28T03:05:53;101298.84;;;6.86;49.64
11648;BME280;5880;52.342;9.662;2024-02-28T03:08:19;101302.22;;;6.88;49.45
11648;BME280;5880;52.342;9.662;2024-02-28T03:10:44;101307.22;;;6.84;49.51
11648;BME280;5880;52.342;9.662;2024-02-28T03:13:10;101308.44;;;6.82;49.60
11648;BME280;5880;52.342;9.662;2024-02-28T03:15:36;101303.59;;;6.77;49.50
11648;BME280;5880;52.342;9.662;2024-02-28T03:18:01;101316.69;;;6.73;49.43
11648;BME280;5880;52.342;9.662;2024-02-28T03:20:27;101312.66;;;6.69;49.53
11648;BME280;5880;52.342;9.662;2024-02-28T03:22:53;101315.78;;;6.66;49.75
11648;BME280;5880;52.342;9.662;2024-02-28T03:25:18;101306.97;;;6.64;49.63
11648;BME280;5880;52.342;9.662;2024-02-28T03:27:44;101315.03;;;6.58;49.76
11648;BME280;5880;52.342;9.662;2024-02-28T03:30:10;101321.78;;;6.62;49.70
11648;BME280;5880;52.342;9.662;2024-02-28T03:32:35;101318.59;;;6.58;49.58
11648;BME280;5880;52.342;9.662;2024-02-28T03:35:01;101324.22;;;6.57;49.70
11648;BME280;5880;52.342;9.662;2024-02-28T03:37:27;101327.97;;;6.55;50.12
11648;BME280;5880;52.342;9.662;2024-02-28T03:39:52;101317.03;;;6.49;50.00
11648;BME280;5880;52.342;9.662;2024-02-28T03:42:18;101329.00;;;6.54;49.70
11648;BME280;5880;52.342;9.662;2024-02-28T03:44:44;101339.19;;;6.52;49.79
11648;BME280;5880;52.342;9.662;2024-02-28T03:47:10;101329.56;;;6.50;50.16
11648;BME280;5880;52.342;9.662;2024-02-28T03:49:35;101338.53;;;6.50;50.03
11648;BME280;5880;52.342;9.662;2024-02-28T03:52:01;101337.88;;;6.48;50.23
11648;BME280;5880;52.342;9.662;2024-02-28T03:54:27;101330.13;;;6.45;49.54
11648;BME280;5880;52.342;9.662;2024-02-28T03:56:52;101329.09;;;6.46;49.74
11648;BME280;5880;52.342;9.662;2024-02-28T03:59:18;101333.00;;;6.44;49.81
11648;BME280;5880;52.342;9.662;2024-02-28T04:01:44;101341.16;;;6.44;49.54
11648;BME280;5880;52.342;9.662;2024-02-28T04:04:10;101356.63;;;6.43;49.88
11648;BME280;5880;52.342;9.662;2024-02-28T04:06:35;101353.25;;;6.41;50.27
11648;BME280;5880;52.342;9.662;2024-02-28T04:09:01;101353.44;;;6.40;49.90
11648;BME280;5880;52.342;9.662;2024-02-28T04:11:28;101350.91;;;6.38;49.95
11648;BME280;5880;52.342;9.662;2024-02-28T04:13:54;101352.63;;;6.39;50.33
11648;BME280;5880;52.342;9.662;2024-02-28T04:16:19;101359.06;;;6.38;50.17
11648;BME280;5880;52.342;9.662;2024-02-28T04:18:45;101347.53;;;6.36;50.19
11648;BME280;5880;52.342;9.662;2024-02-28T04:21:11;101350.91;;;6.38;50.22
11648;BME280;5880;52.342;9.662;2024-02-28T04:23:36;101345.88;;;6.35;50.41
11648;BME280;5880;52.342;9.662;2024-02-28T04:26:03;101343.97;;;6.36;50.27
11648;BME280;5880;52.342;9.662;2024-02-28T04:28:29;101345.03;;;6.34;50.16
11648;BME280;5880;52.342;9.662;2024-02-28T04:30:55;101350.47;;;6.34;50.28
11648;BME280;5880;52.342;9.662;2024-02-28T04:33:21;101344.16;;;6.34;50.34
11648;BME280;5880;52.342;9.662;2024-02-28T04:35:48;101349.78;;;6.32;50.30
11648;BME280;5880;52.342;9.662;2024-02-28T04:38:14;101353.53;;;6.31;50.62
11648;BME280;5880;52.342;9.662;2024-02-28T04:40:39;101351.84;;;6.30;50.21
11648;BME280;5880;52.342;9.662;2024-02-28T04:43:05;101361.00;;;6.29;50.10
11648;BME280;5880;52.342;9.662;2024-02-28T04:45:31;101366.66;;;6.28;49.89
11648;BME280;5880;52.342;9.662;2024-02-28T04:47:56;101367.19;;;6.23;49.78
11648;BME280;5880;52.342;9.662;2024-02-28T04:50:23;101368.59;;;6.19;50.19
11648;BME280;5880;52.342;9.662;2024-02-28T04:52:49;101377.56;;;6.20;50.31
11648;BME280;5880;52.342;9.662;2024-02-28T04:55:14;101368.47;;;6.12;50.52
11648;BME280;5880;52.342;9.662;2024-02-28T04:57:40;101377.97;;;6.17;50.35
11648;BME280;5880;52.342;9.662;2024-02-28T05:00:06;101386.28;;;6.15;49.85
11648;BME280;5880;52.342;9.662;2024-02-28T05:02:33;101392.75;;;6.14;49.89
11648;BME280;5880;52.342;9.662;2024-02-28T05:04:59;101394.78;;;6.12;50.07
11648;BME280;5880;52.342;9.662;2024-02-28T05:07:25;101399.38;;;6.11;49.77
11648;BME280;5880;52.342;9.662;2024-02-28T05:09:50;101401.44;;;6.09;50.46
11648;BME280;5880;52.342;9.662;2024-02-28T05:12:16;101397.41;;;6.05;50.32
11648;BME280;5880;52.342;9.662;2024-02-28T05:14:42;101395.22;;;6.01;50.30
11648;BME280;5880;52.342;9.662;2024-02-28T05:17:07;101394.84;;;6.04;50.22
11648;BME280;5880;52.342;9.662;2024-02-28T05:19:33;101399.81;;;6.00;50.08
11648;BME280;5880;52.342;9.662;2024-02-28T05:21:58;101403.38;;;6.01;49.92
11648;BME280;5880;52.342;9.662;2024-02-28T05:24:26;101418.81;;;6.00;50.17
11648;BME280;5880;52.342;9.662;2024-02-28T05:26:52;101427.13;;;5.99;50.05
11648;BME280;5880;52.342;9.662;2024-02-28T05:29:17;101422.53;;;5.99;50.51
11648;BME280;5880;52.342;9.662;2024-02-28T05:31:43;101426.78;;;6.02;50.69
11648;BME280;5880;52.342;9.662;2024-02-28T05:34:09;101425.56;;;6.04;50.37
11648;BME280;5880;52.342;9.662;2024-02-28T05:36:34;101432.50;;;6.07;50.53
11648;BME280;5880;52.342;9.662;2024-02-28T05:39:01;101434.84;;;6.10;50.70
11648;BME280;5880;52.342;9.662;2024-02-28T05:41:27;101426.69;;;6.10;50.69
11648;BME280;5880;52.342;9.662;2024-02-28T05:43:53;101432.41;;;6.15;50.89
11648;BME280;5880;52.342;9.662;2024-02-28T05:46:19;101434.41;;;6.21;51.00
11648;BME280;5880;52.342;9.662;2024-02-28T05:48:46;101436.75;;;6.24;51.07
11648;BME280;5880;52.342;9.662;2024-02-28T05:51:12;101443.50;;;6.28;51.21
11648;BME280;5880;52.342;9.662;2024-02-28T05:53:39;101436.47;;;6.34;51.28
11648;BME280;5880;52.342;9.662;2024-02-28T05:56:07;101430.22;;;6.33;51.10
11648;BME280;5880;52.342;9.662;2024-02-28T05:58:46;101445.41;;;6.43;51.34
11648;BME280;5880;52.342;9.662;2024-02-28T06:01:15;101442.31;;;6.46;51.55
11648;BME280;5880;52.342;9.662;2024-02-28T06:03:45;101442.78;;;6.49;51.51
11648;BME280;5880;52.342;9.662;2024-02-28T06:06:11;101432.09;;;6.48;51.32
11648;BME280;5880;52.342;9.662;2024-02-28T06:08:40;101450.00;;;6.57;51.66
11648;BME280;5880;52.342;9.662;2024-02-28T06:11:07;101448.13;;;6.58;52.10
11648;BME280;5880;52.342;9.662;2024-02-28T06:13:33;101437.91;;;6.60;51.56
11648;BME280;5880;52.342;9.662;2024-02-28T06:15:59;101446.72;;;6.62;51.39
11648;BME280;5880;52.342;9.662;2024-02-28T06:18:26;101458.09;;;6.65;51.95
11648;BME280;5880;52.342;9.662;2024-02-28T06:20:56;101449.72;;;6.67;51.60
11648;BME280;5880;52.342;9.662;2024-02-28T06:23:22;101443.28;;;6.68;51.47
11648;BME280;5880;52.342;9.662;2024-02-28T06:25:48;101462.31;;;6.68;51.66
11648;BME280;5880;52.342;9.662;2024-02-28T06:28:14;101456.88;;;6.68;51.37
11648;BME280;5880;52.342;9.662;2024-02-28T06:30:40;101454.81;;;6.70;51.39
11648;BME280;5880;52.342;9.662;2024-02-28T06:33:06;101456.66;;;6.69;51.78
11648;BME280;5880;52.342;9.662;2024-02-28T06:35:34;101456.66;;;6.69;51.61
11648;BME280;5880;52.342;9.662;2024-02-28T06:38:00;101456.66;;;6.69;51.17
11648;BME280;5880;52.342;9.662;2024-02-28T06:40:26;101464.47;;;6.72;51.94
11648;BME280;5880;52.342;9.662;2024-02-28T06:42:51;101469.88;;;6.72;51.85
11648;BME280;5880;52.342;9.662;2024-02-28T06:45:17;101477.00;;;6.73;52.23
11648;BME280;5880;52.342;9.662;2024-02-28T06:47:43;101477.19;;;6.72;51.50
11648;BME280;5880;52.342;9.662;2024-02-28T06:50:10;101474.28;;;6.73;52.01
11648;BME280;5880;52.342;9.662;2024-02-28T06:52:36;101469.06;;;6.72;52.24
11648;BME280;5880;52.342;9.662;2024-02-28T06:55:02;101457.53;;;6.70;51.97
11648;BME280;5880;52.342;9.662;2024-02-28T06:57:42;101464.06;;;6.75;51.99
11648;BME280;5880;52.342;9.662;2024-02-28T07:00:10;101469.50;;;6.75;51.89
11648;BME280;5880;52.342;9.662;2024-02-28T07:02:40;101466.63;;;6.77;52.02
11648;BME280;5880;52.342;9.662;2024-02-28T07:05:06;101468.28;;;6.78;52.08
11648;BME280;5880;52.342;9.662;2024-02-28T07:07:33;101473.16;;;6.83;52.48
11648;BME280;5880;52.342;9.662;2024-02-28T07:09:59;101475.88;;;6.83;52.13
11648;BME280;5880;52.342;9.662;2024-02-28T07:12:25;101464.00;;;6.84;52.57
11648;BME280;5880;52.342;9.662;2024-02-28T07:14:51;101483.75;;;6.92;52.13
11648;BME280;5880;52.342;9.662;2024-02-28T07:17:17;101479.81;;;6.95;52.30
11648;BME280;5880;52.342;9.662;2024-02-28T07:19:43;101481.78;;;7.01;52.34
11648;BME280;5880;52.342;9.662;2024-02-28T07:22:08;101496.69;;;7.05;52.07
11648;BME280;5880;52.342;9.662;2024-02-28T07:24:34;101486.50;;;7.07;52.83
11648;BME280;5880;52.342;9.662;2024-02-28T07:27:00;101498.28;;;7.14;52.57
11648;BME280;5880;52.342;9.662;2024-02-28T07:29:25;101495.38;;;7.16;52.89
11648;BME280;5880;52.342;9.662;2024-02-28T07:31:51;101494.63;;;7.22;52.76
11648;BME280;5880;52.342;9.662;2024-02-28T07:34:17;101502.22;;;7.27;52.76
11648;BME280;5880;52.342;9.662;2024-02-28T07:36:42;101502.03;;;7.28;53.09
11648;BME280;5880;52.342;9.662;2024-02-28T07:39:08;101487.56;;;7.28;53.21
11648;BME280;5880;52.342;9.662;2024-02-28T07:41:38;101490.38;;;7.34;52.86
11648;BME280;5880;52.342;9.662;2024-02-28T07:44:05;101491.88;;;7.37;53.06
11648;BME280;5880;52.342;9.662;2024-02-28T07:46:32;101500.97;;;7.44;53.05
11648;BME280;5880;52.342;9.662;2024-02-28T07:48:58;101502.94;;;7.50;52.82
11648;BME280;5880;52.342;9.662;2024-02-28T07:51:23;101508.63;;;7.55;53.39
11648;BME280;5880;52.342;9.662;2024-02-28T07:53:49;101510.59;;;7.61;53.21
11648;BME280;5880;52.342;9.662;2024-02-28T07:56:19;101517.63;;;7.71;53.39
11648;BME280;5880;52.342;9.662;2024-02-28T07:58:45;101512.25;;;7.77;53.68
11648;BME280;5880;52.342;9.662;2024-02-28T08:01:11;101513.16;;;7.85;53.31
11648;BME280;5880;52.342;9.662;2024-02-28T08:03:37;101515.31;;;7.89;53.56
11648;BME280;5880;52.342;9.662;2024-02-28T08:06:04;101511.63;;;7.97;53.66
11648;BME280;5880;52.342;9.662;2024-02-28T08:08:29;101511.44;;;7.98;53.61
11648;BME280;5880;52.342;9.662;2024-02-28T08:10:55;101518.63;;;8.06;53.69
11648;BME280;5880;52.342;9.662;2024-02-28T08:13:21;101515.31;;;8.11;53.32
11648;BME280;5880;52.342;9.662;2024-02-28T08:15:46;101529.25;;;8.22;53.81
11648;BME280;5880;52.342;9.662;2024-02-28T08:18:12;101526.78;;;8.28;53.89
11648;BME280;5880;52.342;9.662;2024-02-28T08:20:38;101529.84;;;8.39;54.04
11648;BME280;5880;52.342;9.662;2024-02-28T08:23:05;101515.53;;;8.52;54.05
11648;BME280;5880;52.342;9.662;2024-02-28T08:25:31;101519.41;;;8.64;54.00
11648;BME280;5880;52.342;9.662;2024-02-28T08:27:57;101525.53;;;8.73;54.13
11648;BME280;5880;52.342;9.662;2024-02-28T08:30:23;101533.56;;;8.81;54.12
11648;BME280;5880;52.342;9.662;2024-02-28T08:32:49;101535.28;;;8.89;53.94
11648;BME280;5880;52.342;9.662;2024-02-28T08:35:14;101528.22;;;8.95;53.93
11648;BME280;5880;52.342;9.662;2024-02-28T08:37:40;101525.53;;;9.01;54.04
11648;BME280;5880;52.342;9.662;2024-02-28T08:40:07;101509.16;;;9.01;54.05
11648;BME280;5880;52.342;9.662;2024-02-28T08:42:33;101519.72;;;9.11;53.88
11648;BME280;5880;52.342;9.662;2024-02-28T08:45:00;101521.19;;;9.14;53.90
11648;BME280;5880;52.342;9.662;2024-02-28T08:47:26;101520.59;;;9.18;53.94
11648;BME280;5880;52.342;9.662;2024-02-28T08:49:53;101523.75;;;9.22;53.99
11648;BME280;5880;52.342;9.662;2024-02-28T08:52:20;101532.16;;;9.27;54.03
11648;BME280;5880;52.342;9.662;2024-02-28T08:54:46;101530.72;;;9.31;54.05
11648;BME280;5880;52.342;9.662;2024-02-28T08:57:13;101531.81;;;9.37;53.92
11648;BME280;5880;52.342;9.662;2024-02-28T08:59:39;101519.66;;;9.39;54.07
11648;BME280;5880;52.342;9.662;2024-02-28T09:02:08;101538.97;;;9.44;54.05
11648;BME280;5880;52.342;9.662;2024-02-28T09:04:36;101536.66;;;9.48;54.03
11648;BME280;5880;52.342;9.662;2024-02-28T09:07:02;101536.06;;;9.52;54.12
11648;BME280;5880;52.342;9.662;2024-02-28T09:09:28;101541.56;;;9.59;54.11
11648;BME280;5880;52.342;9.662;2024-02-28T09:11:55;101543.03;;;9.62;54.05
11648;BME280;5880;52.342;9.662;2024-02-28T09:14:21;101536.78;;;9.68;54.04
11648;BME280;5880;52.342;9.662;2024-02-28T09:16:47;101542.47;;;9.73;53.99
11648;BME280;5880;52.342;9.662;2024-02-28T09:19:13;101545.84;;;9.82;54.29
11648;BME280;5880;52.342;9.662;2024-02-28T09:21:38;101552.63;;;9.99;54.64
11648;BME280;5880;52.342;9.662;2024-02-28T09:24:04;101548.88;;;10.20;54.83
11648;BME280;5880;52.342;9.662;2024-02-28T09:26:30;101552.94;;;10.51;55.41
11648;BME280;5880;52.342;9.662;2024-02-28T09:28:56;101542.44;;;10.88;55.74
11648;BME280;5880;52.342;9.662;2024-02-28T09:31:21;101541.09;;;11.30;55.43
11648;BME280;5880;52.342;9.662;2024-02-28T09:33:47;101541.34;;;11.74;55.49
11648;BME280;5880;52.342;9.662;2024-02-28T09:36:14;101541.63;;;12.11;55.09
11648;BME280;5880;52.342;9.662;2024-02-28T09:38:41;101536.13;;;12.42;54.69
11648;BME280;5880;52.342;9.662;2024-02-28T09:41:07;101546.03;;;12.68;54.20
11648;BME280;5880;52.342;9.662;2024-02-28T09:43:41;101550.53;;;12.88;53.51
11648;BME280;5880;52.342;9.662;2024-02-28T09:46:08;101547.25;;;12.98;53.12
11648;BME280;5880;52.342;9.662;2024-02-28T09:48:40;101557.97;;;12.99;52.35
11648;BME280;5880;52.342;9.662;2024-02-28T09:51:09;101558.97;;;12.86;51.86
11648;BME280;5880;52.342;9.662;2024-02-28T09:53:38;101560.53;;;12.76;51.91
11648;BME280;5880;52.342;9.662;2024-02-28T09:56:07;101558.75;;;12.63;52.04
11648;BME280;5880;52.342;9.662;2024-02-28T09:58:33;101554.88;;;12.45;51.89
11648;BME280;5880;52.342;9.662;2024-02-28T10:01:02;101568.81;;;12.44;52.09
11648;BME280;5880;52.342;9.662;2024-02-28T10:03:30;101569.47;;;12.39;52.07
11648;BME280;5880;52.342;9.662;2024-02-28T10:05:57;101578.19;;;12.30;51.70
11648;BME280;5880;52.342;9.662;2024-02-28T10:08:23;101578.03;;;12.18;51.00
11648;BME280;5880;52.342;9.662;2024-02-28T10:10:49;101579.59;;;12.00;51.03
11648;BME280;5880;52.342;9.662;2024-02-28T10:13:19;101590.63;;;11.80;51.00
11648;BME280;5880;52.342;9.662;2024-02-28T10:15:45;101595.06;;;11.68;51.10
11648;BME280;5880;52.342;9.662;2024-02-28T10:18:11;101590.06;;;11.58;51.44
11648;BME280;5880;52.342;9.662;2024-02-28T10:20:37;101598.28;;;11.52;51.74
11648;BME280;5880;52.342;9.662;2024-02-28T10:23:07;101587.59;;;11.44;52.08
11648;BME280;5880;52.342;9.662;2024-02-28T10:25:48;101596.88;;;11.43;51.91
11648;BME280;5880;52.342;9.662;2024-02-28T10:28:14;101605.94;;;11.36;52.11
11648;BME280;5880;52.342;9.662;2024-02-28T10:30:43;101616.88;;;11.36;52.26
11648;BME280;5880;52.342;9.662;2024-02-28T10:33:14;101605.09;;;11.36;52.19
11648;BME280;5880;52.342;9.662;2024-02-28T10:35:43;101609.94;;;11.34;52.46
11648;BME280;5880;52.342;9.662;2024-02-28T10:38:11;101600.25;;;11.31;52.27
11648;BME280;5880;52.342;9.662;2024-02-28T10:40:39;101601.91;;;11.32;52.52
11648;BME280;5880;52.342;9.662;2024-02-28T10:43:10;101605.94;;;11.36;52.55
11648;BME280;5880;52.342;9.662;2024-02-28T10:45:37;101610.38;;;11.31;52.06
11648;BME280;5880;52.342;9.662;2024-02-28T10:48:06;101614.56;;;11.27;52.08
11648;BME280;5880;52.342;9.662;2024-02-28T10:50:33;101617.31;;;11.20;52.18
11648;BME280;5880;52.342;9.662;2024-02-28T10:53:03;101600.25;;;11.18;52.10
11648;BME280;5880;52.342;9.662;2024-02-28T10:55:33;101594.59;;;11.13;52.15
11648;BME280;5880;52.342;9.662;2024-02-28T10:58:07;101595.22;;;11.08;52.02
11648;BME280;5880;52.342;9.662;2024-02-28T11:00:35;101599.88;;;11.08;52.15
11648;BME280;5880;52.342;9.662;2024-02-28T11:03:02;101598.59;;;11.10;52.26
11648;BME280;5880;52.342;9.662;2024-02-28T11:05:42;101605.34;;;11.14;52.25
11648;BME280;5880;52.342;9.662;2024-02-28T11:08:23;101609.75;;;11.15;52.38
11648;BME280;5880;52.342;9.662;2024-02-28T11:11:03;101609.31;;;11.18;52.85
11648;BME280;5880;52.342;9.662;2024-02-28T11:13:33;101600.06;;;11.19;52.71
11648;BME280;5880;52.342;9.662;2024-02-28T11:16:09;101588.25;;;11.26;52.56
11648;BME280;5880;52.342;9.662;2024-02-28T11:18:35;101591.22;;;11.31;52.98
11648;BME280;5880;52.342;9.662;2024-02-28T11:21:01;101585.06;;;11.35;52.81
11648;BME280;5880;52.342;9.662;2024-02-28T11:23:36;101588.03;;;11.40;52.85
11648;BME280;5880;52.342;9.662;2024-02-28T11:26:03;101590.53;;;11.42;52.93
11648;BME280;5880;52.342;9.662;2024-02-28T11:28:29;101592.22;;;11.43;52.60
11648;BME280;5880;52.342;9.662;2024-02-28T11:30:55;101584.84;;;11.44;52.56
11648;BME280;5880;52.342;9.662;2024-02-28T11:33:20;101581.47;;;11.41;52.67
11648;BME280;5880;52.342;9.662;2024-02-28T11:35:56;101577.91;;;11.41;52.83
11648;BME280;5880;52.342;9.662;2024-02-28T11:38:24;101578.53;;;11.43;52.69
11648;BME280;5880;52.342;9.662;2024-02-28T11:40:50;101576.84;;;11.42;52.75
11648;BME280;5880;52.342;9.662;2024-02-28T11:43:17;101577.28;;;11.46;53.12
11648;BME280;5880;52.342;9.662;2024-02-28T11:45:44;101581.69;;;11.47;52.97
11648;BME280;5880;52.342;9.662;2024-02-28T11:48:15;101592.22;;;11.50;52.71
11648;BME280;5880;52.342;9.662;2024-02-28T11:50:42;101584.59;;;11.52;52.97
11648;BME280;5880;52.342;9.662;2024-02-28T11:53:08;101577.66;;;11.49;53.13
11648;BME280;5880;52.342;9.662;2024-02-28T11:55:35;101587.13;;;11.53;52.58
11648;BME280;5880;52.342;9.662;2024-02-28T11:58:01;101580.81;;;11.53;52.61
11648;BME280;5880;52.342;9.662;2024-02-28T12:00:27;101575.97;;;11.55;52.71
11648;BME280;5880;52.342;9.662;2024-02-28T12:02:52;101587.75;;;11.55;52.45
11648;BME280;5880;52.342;9.662;2024-02-28T12:05:29;101585.84;;;11.56;52.70
11648;BME280;5880;52.342;9.662;2024-02-28T12:07:55;101572.16;;;11.56;52.79
11648;BME280;5880;52.342;9.662;2024-02-28T12:10:22;101575.09;;;11.61;52.59
11648;BME280;5880;52.342;9.662;2024-02-28T12:12:48;101584.81;;;11.64;52.93
11648;BME280;5880;52.342;9.662;2024-02-28T12:15:15;101577.19;;;11.66;52.81
11648;BME280;5880;52.342;9.662;2024-02-28T12:17:43;101580.56;;;11.68;52.76
11648;BME280;5880;52.342;9.662;2024-02-28T12:20:09;101575.31;;;11.66;52.68
11648;BME280;5880;52.342;9.662;2024-02-28T12:22:35;101571.50;;;11.67;52.34
11648;BME280;5880;52.342;9.662;2024-02-28T12:25:00;101572.16;;;11.62;52.43
11648;BME280;5880;52.342;9.662;2024-02-28T12:27:30;101571.31;;;11.62;52.19
11648;BME280;5880;52.342;9.662;2024-02-28T12:29:56;101570.69;;;11.60;52.54
11648;BME280;5880;52.342;9.662;2024-02-28T12:32:22;101571.53;;;11.60;52.21
11648;BME280;5880;52.342;9.662;2024-02-28T12:34:48;101566.03;;;11.60;52.60
11648;BME280;5880;52.342;9.662;2024-02-28T12:37:13;101561.84;;;11.58;52.51
11648;BME280;5880;52.342;9.662;2024-02-28T12:39:39;101559.09;;;11.58;52.89
11648;BME280;5880;52.342;9.662;2024-02-28T12:42:06;101561.19;;;11.62;52.46
11648;BME280;5880;52.342;9.662;2024-02-28T12:44:32;101559.91;;;11.65;52.38
11648;BME280;5880;52.342;9.662;2024-02-28T12:46:58;101550.25;;;11.62;52.38
11648;BME280;5880;52.342;9.662;2024-02-28T12:49:23;101549.41;;;11.62;52.26
11648;BME280;5880;52.342;9.662;2024-02-28T12:51:49;101559.09;;;11.65;52.38
11648;BME280;5880;52.342;9.662;2024-02-28T12:54:16;101546.22;;;11.65;52.48
11648;BME280;5880;52.342;9.662;2024-02-28T12:56:42;101542.44;;;11.66;52.64
11648;BME280;5880;52.342;9.662;2024-02-28T12:59:09;101538.00;;;11.65;52.73
11648;BME280;5880;52.342;9.662;2024-02-28T13:01:35;101538.19;;;11.70;52.61
11648;BME280;5880;52.342;9.662;2024-02-28T13:04:01;101543.03;;;11.75;52.78